createdAt,value
2022-09-18T00:00:50.446Z,98390.86
2022-09-18T00:01:52.207Z,98385.27
2022-09-18T00:02:54.078Z,98389.09
2022-09-18T00:03:58.728Z,98389.09
2022-09-18T00:05:01.246Z,98386.71
2022-09-18T00:06:08.864Z,98394.88
2022-09-18T00:07:10.821Z,98389.41
2022-09-18T00:08:12.729Z,98385.59
2022-09-18T00:09:14.959Z,98383.47
2022-09-18T00:10:19.051Z,98380.41
2022-09-18T00:11:23.255Z,98378.73
2022-09-18T00:12:25.198Z,98380.90
2022-09-18T00:13:27.015Z,98374.01
2022-09-18T00:14:29.141Z,98368.91
2022-09-18T00:15:31.602Z,98368.91
2022-09-18T00:16:34.375Z,98359.14
2022-09-18T00:17:36.818Z,98364.86
2022-09-18T00:18:39.286Z,98365.89
2022-09-18T00:19:41.551Z,98368.51
2022-09-18T00:20:43.538Z,98365.62
2022-09-18T00:21:48.615Z,98366.12
2022-09-18T00:22:50.561Z,98365.67
2022-09-18T00:23:56.136Z,98378.25
2022-09-18T00:24:58.073Z,98377.75
2022-09-18T00:26:00.101Z,98380.63
2022-09-18T00:27:01.877Z,98386.31
2022-09-18T00:28:04.365Z,98387.70
2022-09-18T00:29:06.864Z,98383.91
2022-09-18T00:30:10.611Z,98383.41
2022-09-18T00:31:18.830Z,98383.15
2022-09-18T00:32:21.275Z,98382.06
2022-09-18T00:33:23.928Z,98379.00
2022-09-18T00:34:25.764Z,98381.48
2022-09-18T00:35:27.599Z,98371.50
2022-09-18T00:36:30.117Z,98371.50
2022-09-18T00:37:31.871Z,98372.77
2022-09-18T00:38:34.629Z,98369.09
2022-09-18T00:39:37.179Z,98368.11
2022-09-18T00:40:39.250Z,98361.94
2022-09-18T00:41:44.701Z,98358.23
2022-09-18T00:42:46.790Z,98361.42
2022-09-18T00:43:49.876Z,98359.31
2022-09-18T00:44:51.703Z,98365.05
2022-09-18T00:45:57.496Z,98360.77
2022-09-18T00:47:27.795Z,98358.73
2022-09-18T00:48:40.648Z,98359.99
2022-09-18T00:51:05.962Z,98341.23
2022-09-18T00:52:10.356Z,98345.35
2022-09-18T00:53:13.034Z,98341.92
2022-09-18T00:54:21.682Z,98337.83
2022-09-18T00:55:30.057Z,98333.08
2022-09-18T00:56:34.714Z,98332.28
2022-09-18T00:57:40.305Z,98332.66
2022-09-18T00:58:43.753Z,98322.20
2022-09-18T00:59:47.705Z,98319.27
2022-09-18T01:00:50.287Z,98325.08
2022-09-18T01:01:55.624Z,98317.23
2022-09-18T01:02:59.516Z,98316.76
2022-09-18T01:04:01.793Z,98309.98
2022-09-18T01:05:04.829Z,98295.70
2022-09-18T01:06:34.312Z,98301.87
2022-09-18T01:07:59.560Z,98301.06
2022-09-18T01:09:25.226Z,98299.59
2022-09-18T01:10:39.961Z,98303.03
2022-09-18T01:11:48.229Z,98300.42
2022-09-18T01:12:56.588Z,98295.06
2022-09-18T01:14:23.113Z,98300.05
2022-09-18T01:15:28.803Z,98297.31
2022-09-18T01:16:58.839Z,98292.33
2022-09-18T01:18:19.905Z,98304.20
2022-09-18T01:19:45.374Z,98299.33
2022-09-18T01:21:12.506Z,98301.95
2022-09-18T01:22:24.105Z,98306.09
2022-09-18T01:23:39.216Z,98305.97
2022-09-18T01:24:56.989Z,98305.86
2022-09-18T01:26:06.197Z,98294.11
2022-09-18T01:27:11.303Z,98289.81
2022-09-18T01:28:28.896Z,98288.15
2022-09-18T01:29:52.928Z,98281.84
2022-09-18T01:30:58.970Z,98279.67
2022-09-18T01:32:17.158Z,98273.98
2022-09-18T01:33:25.595Z,98270.14
2022-09-18T01:34:48.041Z,98271.23
2022-09-18T01:35:54.145Z,98258.74
2022-09-18T01:37:02.736Z,98262.03
2022-09-18T01:38:08.554Z,98259.69
2022-09-18T01:39:14.650Z,98259.93
2022-09-18T01:40:27.764Z,98261.22
2022-09-18T01:41:30.798Z,98261.15
2022-09-18T01:42:35.988Z,98253.10
2022-09-18T01:43:39.792Z,98250.25
2022-09-18T01:44:44.739Z,98255.98
2022-09-18T01:45:50.724Z,98245.05
2022-09-18T01:46:58.402Z,98245.05
2022-09-18T01:49:21.841Z,98236.03
2022-09-18T01:50:29.712Z,98243.17
2022-09-18T01:51:45.191Z,98234.63
2022-09-18T01:53:02.835Z,98239.83
2022-09-18T01:54:09.779Z,98239.73
2022-09-18T01:55:15.489Z,98235.45
2022-09-18T01:56:21.465Z,98229.38
2022-09-18T01:57:34.546Z,98227.34
2022-09-18T01:58:37.293Z,98229.59
2022-09-18T01:59:44.044Z,98215.13
2022-09-18T02:00:56.817Z,98215.27
2022-09-18T02:02:02.556Z,98214.45
2022-09-18T02:03:11.571Z,98209.95
2022-09-18T02:04:22.881Z,98203.78
2022-09-18T02:05:29.488Z,98205.19
2022-09-18T02:06:38.079Z,98197.41
2022-09-18T02:08:01.888Z,98192.18
2022-09-18T02:09:05.475Z,98193.13
2022-09-18T02:10:08.721Z,98190.57
2022-09-18T02:11:13.972Z,98191.75
2022-09-18T02:12:19.978Z,98190.00
2022-09-18T02:14:40.574Z,98194.18
2022-09-18T02:16:04.829Z,98191.48
2022-09-18T02:17:11.016Z,98191.34
2022-09-18T02:18:16.710Z,98183.25
2022-09-18T02:19:29.037Z,98178.61
2022-09-18T02:20:34.273Z,98175.90
2022-09-18T02:21:40.273Z,98170.46
2022-09-18T02:22:45.065Z,98170.20
2022-09-18T02:23:48.016Z,98176.86
2022-09-18T02:24:53.748Z,98169.29
2022-09-18T02:25:58.779Z,98179.73
2022-09-18T02:27:03.930Z,98178.42
2022-09-18T02:28:08.824Z,98180.64
2022-09-18T02:29:15.093Z,98176.84
2022-09-18T02:30:22.339Z,98176.48
2022-09-18T02:31:25.181Z,98180.72
2022-09-18T02:32:28.058Z,98174.45
2022-09-18T02:33:36.246Z,98175.98
2022-09-18T02:34:38.479Z,98170.05
2022-09-18T02:35:44.555Z,98173.61
2022-09-18T02:36:59.577Z,98179.41
2022-09-18T02:38:17.300Z,98180.26
2022-09-18T02:39:34.969Z,98171.45
2022-09-18T02:40:55.848Z,98177.06
2022-09-18T02:42:19.246Z,98170.68
2022-09-18T02:43:46.357Z,98172.44
2022-09-18T02:45:05.062Z,98167.48
2022-09-18T02:46:18.580Z,98168.44
2022-09-18T02:47:48.455Z,98167.67
2022-09-18T02:49:10.784Z,98165.06
2022-09-18T02:50:34.709Z,98164.70
2022-09-18T02:51:46.669Z,98159.52
2022-09-18T02:53:11.703Z,98156.28
2022-09-18T02:54:20.783Z,98148.34
2022-09-18T02:55:29.545Z,98147.20
2022-09-18T02:56:41.370Z,98143.91
2022-09-18T02:57:50.542Z,98141.53
2022-09-18T02:58:58.916Z,98133.25
2022-09-18T03:00:03.897Z,98128.03
2022-09-18T03:01:09.843Z,98133.94
2022-09-18T03:02:12.741Z,98126.37
2022-09-18T03:03:16.476Z,98118.55
2022-09-18T03:04:22.932Z,98116.65
2022-09-18T03:05:30.600Z,98115.80
2022-09-18T03:06:34.612Z,98120.44
2022-09-18T03:07:37.270Z,98120.70
2022-09-18T03:08:39.342Z,98117.83
2022-09-18T03:09:42.347Z,98104.56
2022-09-18T03:10:44.826Z,98106.00
2022-09-18T03:11:46.842Z,98100.06
2022-09-18T03:12:48.819Z,98106.70
2022-09-18T03:13:50.923Z,98104.20
2022-09-18T03:14:53.020Z,98097.45
2022-09-18T03:15:56.129Z,98096.28
2022-09-18T03:17:01.394Z,98090.16
2022-09-18T03:18:03.741Z,98091.34
2022-09-18T03:19:05.759Z,98088.05
2022-09-18T03:20:08.725Z,98081.63
2022-09-18T03:21:11.775Z,98081.63
2022-09-18T03:22:14.601Z,98074.52
2022-09-18T03:23:17.851Z,98068.49
2022-09-18T03:24:21.768Z,98075.47
2022-09-18T03:25:23.872Z,98072.86
2022-09-18T03:26:27.169Z,98071.45
2022-09-18T03:27:29.185Z,98063.73
2022-09-18T03:28:32.215Z,98063.73
2022-09-18T03:29:36.167Z,98069.08
2022-09-18T03:30:38.587Z,98062.20
2022-09-18T03:31:40.817Z,98057.56
2022-09-18T03:32:42.855Z,98064.45
2022-09-18T03:33:45.501Z,98065.39
2022-09-18T03:34:48.726Z,98062.65
2022-09-18T03:35:52.439Z,98062.42
2022-09-18T03:36:54.555Z,98061.92
2022-09-18T03:37:56.543Z,98067.45
2022-09-18T03:39:00.544Z,98062.82
2022-09-18T03:40:05.747Z,98057.87
2022-09-18T03:41:08.438Z,98061.42
2022-09-18T03:42:12.188Z,98048.88
2022-09-18T03:43:14.709Z,98048.88
2022-09-18T03:44:17.086Z,98062.23
2022-09-18T03:45:20.226Z,98055.31
2022-09-18T03:46:23.399Z,98048.88
2022-09-18T03:47:27.656Z,98044.11
2022-09-18T03:48:29.852Z,98045.06
2022-09-18T03:49:32.725Z,98054.95
2022-09-18T03:50:35.207Z,98044.30
2022-09-18T03:51:39.188Z,98046.19
2022-09-18T03:52:42.533Z,98039.76
2022-09-18T03:53:47.494Z,98037.41
2022-09-18T03:55:04.082Z,98039.31
2022-09-18T03:56:17.493Z,98040.13
2022-09-18T03:57:23.947Z,98026.77
2022-09-18T03:58:30.799Z,98030.00
2022-09-18T03:59:40.398Z,98020.75
2022-09-18T04:00:44.305Z,98025.15
2022-09-18T04:01:48.735Z,98026.45
2022-09-18T04:02:55.757Z,98024.56
2022-09-18T04:04:05.644Z,98027.17
2022-09-18T04:05:26.688Z,98027.63
2022-09-18T04:06:47.198Z,98032.02
2022-09-18T04:07:56.660Z,98033.66
2022-09-18T04:09:00.534Z,98027.13
2022-09-18T04:10:05.004Z,98021.91
2022-09-18T04:11:06.984Z,98025.02
2022-09-18T04:12:08.984Z,98020.52
2022-09-18T04:13:11.077Z,98018.01
2022-09-18T04:14:13.566Z,98017.19
2022-09-18T04:15:16.441Z,98008.66
2022-09-18T04:16:18.815Z,98019.35
2022-09-18T04:17:21.298Z,98021.83
2022-09-18T04:18:23.313Z,98008.56
2022-09-18T04:19:25.484Z,98015.41
2022-09-18T04:20:28.317Z,98006.77
2022-09-18T04:21:30.570Z,98005.11
2022-09-18T04:22:33.372Z,97994.44
2022-09-18T04:23:36.101Z,97999.89
2022-09-18T04:24:38.303Z,97995.52
2022-09-18T04:25:41.534Z,97985.77
2022-09-18T04:26:43.631Z,97981.19
2022-09-18T04:27:45.822Z,97972.92
2022-09-18T04:28:47.754Z,97974.00
2022-09-18T04:29:49.903Z,97968.30
2022-09-18T04:30:52.406Z,97970.55
2022-09-18T04:31:54.574Z,97971.00
2022-09-18T04:32:57.836Z,97967.44
2022-09-18T04:34:00.040Z,97956.44
2022-09-18T04:35:01.984Z,97959.17
2022-09-18T04:36:04.784Z,97947.81
2022-09-18T04:37:10.099Z,97954.69
2022-09-18T04:38:11.273Z,97954.69
2022-09-18T04:39:13.155Z,97958.00
2022-09-18T04:40:17.261Z,97956.00
2022-09-18T04:41:21.347Z,97952.70
2022-09-18T04:42:23.319Z,97955.64
2022-09-18T04:43:27.705Z,97949.61
2022-09-18T04:44:30.384Z,97945.80
2022-09-18T04:45:33.227Z,97947.11
2022-09-18T04:46:37.167Z,97944.98
2022-09-18T04:47:40.098Z,97940.45
2022-09-18T04:48:48.276Z,97936.44
2022-09-18T04:49:50.551Z,97945.92
2022-09-18T04:50:54.097Z,97938.55
2022-09-18T04:51:56.909Z,97936.66
2022-09-18T04:52:59.415Z,97943.27
2022-09-18T04:54:02.080Z,97942.80
2022-09-18T04:55:05.176Z,97936.61
2022-09-18T04:56:08.629Z,97936.61
2022-09-18T04:57:11.060Z,97932.61
2022-09-18T04:58:14.486Z,97936.42
2022-09-18T04:59:17.743Z,97931.80
2022-09-18T05:00:23.432Z,97925.02
2022-09-18T05:01:25.571Z,97916.52
2022-09-18T05:02:29.263Z,97921.97
2022-09-18T05:03:31.468Z,97922.91
2022-09-18T05:04:34.101Z,97924.57
2022-09-18T05:05:37.976Z,97912.97
2022-09-18T05:06:40.666Z,97912.97
2022-09-18T05:07:42.865Z,97921.67
2022-09-18T05:08:45.475Z,97917.62
2022-09-18T05:09:47.491Z,97914.64
2022-09-18T05:10:50.480Z,97912.09
2022-09-18T05:11:52.332Z,97909.73
2022-09-18T05:12:54.656Z,97904.27
2022-09-18T05:13:57.112Z,97908.41
2022-09-18T05:15:01.047Z,97904.03
2022-09-18T05:16:03.892Z,97917.69
2022-09-18T05:17:06.489Z,97917.69
2022-09-18T05:18:17.187Z,97901.46
2022-09-18T05:19:19.699Z,97908.84
2022-09-18T05:20:22.479Z,97892.69
2022-09-18T05:21:24.794Z,97890.32
2022-09-18T05:22:26.832Z,97894.66
2022-09-18T05:23:29.038Z,97894.02
2022-09-18T05:24:31.715Z,97893.64
2022-09-18T05:25:34.289Z,97900.58
2022-09-18T05:26:39.021Z,97887.98
2022-09-18T05:27:42.191Z,97882.50
2022-09-18T05:28:49.820Z,97886.39
2022-09-18T05:29:51.840Z,97881.11
2022-09-18T05:31:00.380Z,97877.28
2022-09-18T05:32:04.799Z,97882.77
2022-09-18T05:33:10.518Z,97879.45
2022-09-18T05:34:14.232Z,97875.90
2022-09-18T05:35:16.460Z,97874.67
2022-09-18T05:36:21.500Z,97873.59
2022-09-18T05:37:28.612Z,97868.58
2022-09-18T05:38:31.021Z,97869.02
2022-09-18T05:39:33.127Z,97866.69
2022-09-18T05:40:37.829Z,97866.55
2022-09-18T05:41:40.406Z,97873.09
2022-09-18T05:42:47.150Z,97865.33
2022-09-18T05:43:49.626Z,97863.44
2022-09-18T05:44:51.410Z,97860.83
2022-09-18T05:45:56.437Z,97862.28
2022-09-18T05:47:00.290Z,97871.77
2022-09-18T05:48:04.523Z,97867.16
2022-09-18T05:49:07.211Z,97859.20
2022-09-18T05:50:12.144Z,97859.54
2022-09-18T05:51:14.089Z,97863.94
2022-09-18T05:52:16.303Z,97859.54
2022-09-18T05:53:20.687Z,97851.86
2022-09-18T05:54:40.797Z,97848.54
2022-09-18T05:55:45.077Z,97842.75
2022-09-18T05:56:48.699Z,97840.52
2022-09-18T05:57:52.392Z,97836.96
2022-09-18T05:58:55.648Z,97829.85
2022-09-18T05:59:57.890Z,97838.25
2022-09-18T06:01:01.962Z,97822.75
2022-09-18T06:02:05.934Z,97831.41
2022-09-18T06:03:12.435Z,97834.25
2022-09-18T06:04:15.106Z,97829.85
2022-09-18T06:05:18.865Z,97825.80
2022-09-18T06:06:24.235Z,97825.80
2022-09-18T06:07:26.824Z,97827.01
2022-09-18T06:08:28.975Z,97829.75
2022-09-18T06:09:30.785Z,97831.06
2022-09-18T06:10:35.935Z,97820.78
2022-09-18T06:11:41.923Z,97815.44
2022-09-18T06:12:45.432Z,97807.83
2022-09-18T06:13:47.690Z,97803.89
2022-09-18T06:14:49.584Z,97810.39
2022-09-18T06:15:51.719Z,97810.66
2022-09-18T06:16:55.617Z,97809.00
2022-09-18T06:17:58.408Z,97803.80
2022-09-18T06:19:00.362Z,97806.40
2022-09-18T06:20:04.385Z,97804.88
2022-09-18T06:21:06.740Z,97808.73
2022-09-18T06:22:08.736Z,97799.83
2022-09-18T06:23:11.287Z,97797.80
2022-09-18T06:24:15.331Z,97791.64
2022-09-18T06:25:19.570Z,97783.20
2022-09-18T06:26:22.614Z,97792.55
2022-09-18T06:27:25.525Z,97786.05
2022-09-18T06:28:29.231Z,97786.38
2022-09-18T06:29:32.677Z,97788.58
2022-09-18T06:30:36.709Z,97788.28
2022-09-18T06:31:39.348Z,97781.27
2022-09-18T06:32:43.695Z,97787.05
2022-09-18T06:33:48.055Z,97778.04
2022-09-18T06:34:51.141Z,97774.73
2022-09-18T06:35:53.649Z,97776.57
2022-09-18T06:36:57.470Z,97781.51
2022-09-18T06:38:11.078Z,97776.11
2022-09-18T06:39:15.375Z,97775.44
2022-09-18T06:40:20.500Z,97768.75
2022-09-18T06:41:40.838Z,97770.38
2022-09-18T06:42:46.177Z,97774.48
2022-09-18T06:43:50.157Z,97763.07
2022-09-18T06:44:54.055Z,97768.18
2022-09-18T06:45:56.968Z,97765.86
2022-09-18T06:47:00.924Z,97763.19
2022-09-18T06:48:05.638Z,97765.27
2022-09-18T06:49:09.513Z,97768.41
2022-09-18T06:50:13.979Z,97770.59
2022-09-18T06:51:16.006Z,97761.44
2022-09-18T06:52:20.898Z,97747.86
2022-09-18T06:53:25.241Z,97747.08
2022-09-18T06:54:29.074Z,97741.05
2022-09-18T06:55:30.942Z,97747.11
2022-09-18T06:56:33.898Z,97743.23
2022-09-18T06:57:35.688Z,97743.52
2022-09-18T06:58:39.331Z,97748.64
2022-09-18T06:59:42.328Z,97755.80
2022-09-18T07:00:45.836Z,97756.36
2022-09-18T07:01:49.035Z,97749.52
2022-09-18T07:03:12.801Z,97747.47
2022-09-18T07:04:27.082Z,97745.14
2022-09-18T07:05:31.495Z,97742.98
2022-09-18T07:06:33.772Z,97739.67
2022-09-18T07:07:35.673Z,97750.11
2022-09-18T07:08:38.190Z,97742.70
2022-09-18T07:09:42.943Z,97749.04
2022-09-18T07:10:47.030Z,97746.57
2022-09-18T07:11:48.853Z,97749.32
2022-09-18T07:12:58.970Z,97735.83
2022-09-18T07:14:01.463Z,97750.98
2022-09-18T07:15:05.067Z,97750.53
2022-09-18T07:16:07.293Z,97754.73
2022-09-18T07:17:14.104Z,97760.20
2022-09-18T07:18:14.992Z,97760.91
2022-09-18T07:19:18.103Z,97756.00
2022-09-18T07:20:21.164Z,97753.67
2022-09-18T07:21:23.612Z,97763.89
2022-09-18T07:22:27.387Z,97756.42
2022-09-18T07:23:29.794Z,97763.34
2022-09-18T07:24:32.139Z,97754.38
2022-09-18T07:25:34.220Z,97754.03
2022-09-18T07:26:37.402Z,97750.92
2022-09-18T07:27:40.021Z,97746.43
2022-09-18T07:28:42.191Z,97739.88
2022-09-18T07:29:48.915Z,97733.41
2022-09-18T07:30:51.026Z,97732.87
2022-09-18T07:31:53.106Z,97735.38
2022-09-18T07:32:55.502Z,97729.05
2022-09-18T07:33:59.226Z,97728.75
2022-09-18T07:35:03.372Z,97723.82
2022-09-18T07:36:07.022Z,97727.38
2022-09-18T07:37:10.798Z,97722.57
2022-09-18T07:38:13.460Z,97719.30
2022-09-18T07:39:29.503Z,97707.45
2022-09-18T07:40:49.876Z,97699.22
2022-09-18T07:41:54.266Z,97698.25
2022-09-18T07:43:05.855Z,97703.73
2022-09-18T07:44:09.195Z,97697.16
2022-09-18T07:45:11.490Z,97700.87
2022-09-18T07:46:15.101Z,97694.80
2022-09-18T07:47:19.765Z,97698.52
2022-09-18T07:48:22.289Z,97691.23
2022-09-18T07:49:25.433Z,97690.30
2022-09-18T07:50:28.410Z,97686.73
2022-09-18T07:51:41.271Z,97691.95
2022-09-18T07:52:53.911Z,97689.48
2022-09-18T07:53:57.571Z,97686.44
2022-09-18T07:55:05.948Z,97672.39
2022-09-18T07:56:10.894Z,97676.66
2022-09-18T07:57:13.273Z,97672.81
2022-09-18T07:58:17.117Z,97674.20
2022-09-18T07:59:26.571Z,97676.55
2022-09-18T08:00:33.871Z,97676.23
2022-09-18T08:01:36.739Z,97668.55
2022-09-18T08:02:41.052Z,97671.16
2022-09-18T08:03:43.863Z,97673.50
2022-09-18T08:04:48.861Z,97673.50
2022-09-18T08:06:07.355Z,97671.84
2022-09-18T08:07:09.836Z,97659.05
2022-09-18T08:08:30.390Z,97653.67
2022-09-18T08:09:40.877Z,97650.19
2022-09-18T08:10:49.024Z,97650.07
2022-09-18T08:12:08.647Z,97646.80
2022-09-18T08:13:19.802Z,97651.99
2022-09-18T08:14:28.945Z,97661.34
2022-09-18T08:15:37.792Z,97669.45
2022-09-18T08:16:58.031Z,97666.44
2022-09-18T08:18:02.177Z,97673.62
2022-09-18T08:19:06.530Z,97679.66
2022-09-18T08:20:14.482Z,97679.13
2022-09-18T08:21:18.526Z,97674.46
2022-09-18T08:22:25.385Z,97670.20
2022-09-18T08:23:29.468Z,97678.19
2022-09-18T08:24:34.005Z,97678.03
2022-09-18T08:25:36.232Z,97675.94
2022-09-18T08:26:38.243Z,97675.94
2022-09-18T08:27:43.056Z,97677.02
2022-09-18T08:28:47.536Z,97674.80
2022-09-18T08:29:49.460Z,97672.48
2022-09-18T08:30:56.616Z,97668.64
2022-09-18T08:32:03.545Z,97669.98
2022-09-18T08:33:07.414Z,97672.72
2022-09-18T08:34:09.352Z,97664.99
2022-09-18T08:35:11.256Z,97668.53
2022-09-18T08:36:14.342Z,97654.37
2022-09-18T08:37:18.726Z,97657.69
2022-09-18T08:38:39.556Z,97654.34
2022-09-18T08:39:49.123Z,97654.98
2022-09-18T08:41:05.465Z,97657.01
2022-09-18T08:42:27.860Z,97657.98
2022-09-18T08:43:49.403Z,97656.42
2022-09-18T08:45:01.610Z,97654.88
2022-09-18T08:46:20.505Z,97654.72
2022-09-18T08:47:29.185Z,97650.70
2022-09-18T08:48:36.934Z,97649.77
2022-09-18T08:49:46.131Z,97647.52
2022-09-18T08:50:57.900Z,97648.58
2022-09-18T08:52:19.377Z,97636.98
2022-09-18T08:53:27.546Z,97644.71
2022-09-18T08:55:04.963Z,97645.44
2022-09-18T08:56:25.310Z,97644.13
2022-09-18T08:57:49.031Z,97642.59
2022-09-18T08:58:59.603Z,97632.13
2022-09-18T09:00:08.436Z,97640.36
2022-09-18T09:01:14.377Z,97638.42
2022-09-18T09:02:34.233Z,97633.72
2022-09-18T09:04:00.633Z,97635.05
2022-09-18T09:05:20.824Z,97641.09
2022-09-18T09:06:52.697Z,97638.36
2022-09-18T09:08:20.591Z,97629.22
2022-09-18T09:09:38.380Z,97630.03
2022-09-18T09:10:44.940Z,97627.49
2022-09-18T09:12:12.549Z,97626.97
2022-09-18T09:13:41.461Z,97623.22
2022-09-18T09:15:21.363Z,97618.91
2022-09-18T09:16:43.124Z,97620.40
2022-09-18T09:18:18.427Z,97620.60
2022-09-18T09:19:28.819Z,97619.39
2022-09-18T09:20:57.257Z,97611.47
2022-09-18T09:22:19.757Z,97608.36
2022-09-18T09:23:46.608Z,97598.39
2022-09-18T09:25:18.866Z,97604.16
2022-09-18T09:26:25.546Z,97601.92
2022-09-18T09:27:35.760Z,97609.00
2022-09-18T09:29:00.870Z,97606.09
2022-09-18T09:30:08.848Z,97602.97
2022-09-18T09:32:57.120Z,97584.92
2022-09-18T09:34:08.268Z,97586.48
2022-09-18T09:35:31.632Z,97587.21
2022-09-18T09:36:56.014Z,97590.18
2022-09-18T09:38:02.774Z,97596.61
2022-09-18T09:39:23.983Z,97585.44
2022-09-18T09:40:45.329Z,97588.73
2022-09-18T09:41:57.650Z,97593.81
2022-09-18T09:43:24.631Z,97591.20
2022-09-18T09:44:40.845Z,97590.27
2022-09-18T09:45:48.574Z,97594.37
2022-09-18T09:47:07.336Z,97594.88
2022-09-18T09:48:19.763Z,97587.67
2022-09-18T09:49:26.062Z,97594.57
2022-09-18T09:50:42.197Z,97600.28
2022-09-18T09:52:09.331Z,97594.70
2022-09-18T09:53:12.555Z,97601.77
2022-09-18T09:54:15.958Z,97600.32
2022-09-18T09:55:24.695Z,97609.54
2022-09-18T09:57:01.777Z,97606.59
2022-09-18T09:58:17.017Z,97606.75
2022-09-18T09:59:36.553Z,97602.19
2022-09-18T10:01:15.373Z,97591.20
2022-09-18T10:02:42.911Z,97602.06
2022-09-18T10:04:00.702Z,97595.81
2022-09-18T10:05:13.069Z,97609.30
2022-09-18T10:06:25.454Z,97602.02
2022-09-18T10:07:37.183Z,97608.59
2022-09-18T10:08:50.650Z,97610.32
2022-09-18T10:10:13.402Z,97603.81
2022-09-18T10:11:17.185Z,97598.81
2022-09-18T10:12:37.410Z,97606.38
2022-09-18T10:14:01.058Z,97609.72
2022-09-18T10:15:13.218Z,97607.91
2022-09-18T10:17:35.585Z,97600.78
2022-09-18T10:18:41.947Z,97602.02
2022-09-18T10:19:46.600Z,97603.34
2022-09-18T10:20:53.314Z,97602.05
2022-09-18T10:21:56.578Z,97603.96
2022-09-18T10:23:05.682Z,97601.34
2022-09-18T10:24:14.437Z,97600.98
2022-09-18T10:25:31.741Z,97604.67
2022-09-18T10:26:44.157Z,97593.89
2022-09-18T10:27:47.211Z,97597.19
2022-09-18T10:28:51.041Z,97596.16
2022-09-18T10:29:53.967Z,97594.06
2022-09-18T10:31:02.237Z,97594.41
2022-09-18T10:32:07.835Z,97595.22
2022-09-18T10:33:39.019Z,97592.48
2022-09-18T10:34:46.184Z,97582.50
2022-09-18T10:35:50.965Z,97592.98
2022-09-18T10:36:53.885Z,97597.89
2022-09-18T10:37:57.381Z,97596.35
2022-09-18T10:39:19.742Z,97597.19
2022-09-18T10:41:42.761Z,97595.73
2022-09-18T10:42:51.192Z,97592.86
2022-09-18T10:44:04.803Z,97593.64
2022-09-18T10:45:23.036Z,97597.36
2022-09-18T10:46:32.965Z,97594.91
2022-09-18T10:47:38.031Z,97592.73
2022-09-18T10:48:44.957Z,97595.33
2022-09-18T10:50:00.155Z,97590.73
2022-09-18T10:51:03.483Z,97600.85
2022-09-18T10:52:22.580Z,97595.45
2022-09-18T10:53:36.364Z,97596.33
2022-09-18T10:54:41.685Z,97595.33
2022-09-18T10:55:55.709Z,97588.18
2022-09-18T10:57:01.422Z,97586.89
2022-09-18T10:58:07.395Z,97584.65
2022-09-18T10:59:30.379Z,97580.32
2022-09-18T11:00:40.619Z,97579.02
2022-09-18T11:01:45.355Z,97588.53
2022-09-18T11:02:56.956Z,97591.09
2022-09-18T11:04:05.911Z,97583.39
2022-09-18T11:05:19.083Z,97583.62
2022-09-18T11:06:27.388Z,97578.05
2022-09-18T11:07:30.863Z,97573.43
2022-09-18T11:08:35.723Z,97581.52
2022-09-18T11:09:40.413Z,97579.54
2022-09-18T11:10:50.134Z,97569.06
2022-09-18T11:11:53.685Z,97582.03
2022-09-18T11:13:01.745Z,97577.77
2022-09-18T11:14:08.761Z,97581.35
2022-09-18T11:15:19.987Z,97580.28
2022-09-18T11:16:26.470Z,97580.84
2022-09-18T11:17:34.777Z,97575.90
2022-09-18T11:18:38.492Z,97576.41
2022-09-18T11:19:41.735Z,97575.90
2022-09-18T11:20:50.259Z,97569.34
2022-09-18T11:21:57.733Z,97568.66
2022-09-18T11:23:30.553Z,97569.95
2022-09-18T11:24:38.149Z,97559.20
2022-09-18T11:25:42.684Z,97558.92
2022-09-18T11:26:52.730Z,97557.26
2022-09-18T11:27:57.573Z,97548.77
2022-09-18T11:29:20.280Z,97541.55
2022-09-18T11:30:27.017Z,97522.73
2022-09-18T11:31:47.375Z,97525.94
2022-09-18T11:32:56.944Z,97527.45
2022-09-18T11:34:01.837Z,97533.23
2022-09-18T11:35:09.070Z,97536.02
2022-09-18T11:36:16.023Z,97532.62
2022-09-18T11:37:40.553Z,97524.72
2022-09-18T11:38:45.361Z,97526.67
2022-09-18T11:39:55.729Z,97522.88
2022-09-18T11:40:59.608Z,97521.70
2022-09-18T11:42:10.091Z,97524.02
2022-09-18T11:43:17.188Z,97523.52
2022-09-18T11:44:30.852Z,97511.52
2022-09-18T11:45:54.527Z,97518.00
2022-09-18T11:47:19.883Z,97520.11
2022-09-18T11:48:41.024Z,97522.97
2022-09-18T11:49:46.670Z,97508.25
2022-09-18T11:50:53.121Z,97515.44
2022-09-18T11:52:00.095Z,97510.67
2022-09-18T11:53:10.531Z,97513.39
2022-09-18T11:54:18.601Z,97516.98
2022-09-18T11:56:50.230Z,97508.55
2022-09-18T11:58:00.385Z,97505.86
2022-09-18T11:59:12.090Z,97507.58
2022-09-18T12:00:19.673Z,97497.26
2022-09-18T12:01:45.743Z,97495.88
2022-09-18T12:03:07.119Z,97495.20
2022-09-18T12:04:43.727Z,97496.13
2022-09-18T12:05:59.563Z,97487.17
2022-09-18T12:07:39.559Z,97476.65
2022-09-18T12:09:04.576Z,97464.25
2022-09-18T12:10:45.298Z,97457.45
2022-09-18T12:12:03.746Z,97464.05
2022-09-18T12:13:23.039Z,97461.15
2022-09-18T12:14:50.855Z,97466.23
2022-09-18T12:16:28.259Z,97457.52
2022-09-18T12:17:39.757Z,97444.40
2022-09-18T12:19:02.938Z,97438.84
2022-09-18T12:20:24.695Z,97435.87
2022-09-18T12:21:43.262Z,97438.81
2022-09-18T12:22:49.409Z,97439.61
2022-09-18T12:23:53.228Z,97435.69
2022-09-18T12:24:57.807Z,97427.83
2022-09-18T12:26:24.860Z,97429.25
2022-09-18T12:27:51.846Z,97423.66
2022-09-18T12:29:26.488Z,97421.62
2022-09-18T12:30:43.575Z,97420.63
2022-09-18T12:32:15.248Z,97424.52
2022-09-18T12:33:37.725Z,97423.62
2022-09-18T12:35:02.499Z,97424.75
2022-09-18T12:36:36.574Z,97428.37
2022-09-18T12:37:55.643Z,97425.66
2022-09-18T12:39:05.569Z,97427.41
2022-09-18T12:40:14.464Z,97430.66
2022-09-18T12:41:20.134Z,97420.26
2022-09-18T12:42:50.500Z,97421.86
2022-09-18T12:44:02.691Z,97414.03
2022-09-18T12:45:23.430Z,97403.70
2022-09-18T12:46:42.223Z,97412.03
2022-09-18T12:47:57.192Z,97411.16
2022-09-18T12:49:14.975Z,97409.41
2022-09-18T12:50:36.710Z,97401.01
2022-09-18T12:51:49.892Z,97409.88
2022-09-18T12:53:18.679Z,97414.30
2022-09-18T12:54:43.225Z,97407.13
2022-09-18T12:56:18.486Z,97407.72
2022-09-18T12:57:30.066Z,97412.17
2022-09-18T12:58:45.347Z,97411.13
2022-09-18T13:00:03.289Z,97416.06
2022-09-18T13:01:24.959Z,97404.91
2022-09-18T13:02:40.062Z,97407.55
2022-09-18T13:03:45.326Z,97411.51
2022-09-18T13:04:54.278Z,97405.88
2022-09-18T13:06:08.886Z,97406.55
2022-09-18T13:07:23.294Z,97400.30
2022-09-18T13:08:32.401Z,97390.64
2022-09-18T13:09:43.731Z,97378.18
2022-09-18T13:10:47.579Z,97363.30
2022-09-18T13:11:55.996Z,97361.47
2022-09-18T13:13:01.684Z,97354.39
2022-09-18T13:14:19.697Z,97355.88
2022-09-18T13:15:25.312Z,97361.36
2022-09-18T13:16:38.123Z,97366.14
2022-09-18T13:17:43.826Z,97363.86
2022-09-18T13:18:55.572Z,97351.86
2022-09-18T13:20:17.823Z,97351.56
2022-09-18T13:21:32.587Z,97353.64
2022-09-18T13:22:37.718Z,97354.25
2022-09-18T13:23:42.526Z,97348.19
2022-09-18T13:24:48.471Z,97351.02
2022-09-18T13:25:52.184Z,97349.30
2022-09-18T13:26:56.423Z,97342.98
2022-09-18T13:28:01.545Z,97341.06
2022-09-18T13:29:05.376Z,97341.71
2022-09-18T13:30:17.535Z,97330.36
2022-09-18T13:31:23.222Z,97328.39
2022-09-18T13:32:37.652Z,97326.23
2022-09-18T13:33:39.346Z,97325.57
2022-09-18T13:34:47.908Z,97324.92
2022-09-18T13:35:53.518Z,97325.94
2022-09-18T13:36:59.110Z,97323.31